sensor_id;sensor_type;location;lat;lon;timestamp;P1;durP1;ratioP1;P2;durP2;ratioP2
60068;SDS011;45945;53.350;55.922;2023-02-19T00:00:34;18.70;;;8.60;;
60068;SDS011;45945;53.350;55.922;2023-02-19T00:01:37;24.58;;;10.07;;
60068;SDS011;45945;53.350;55.922;2023-02-19T00:02:38;18.88;;;8.02;;
60068;SDS011;45945;53.350;55.922;2023-02-19T00:03:39;23.27;;;10.45;;
60068;SDS011;45945;53.350;55.922;2023-02-19T00:04:40;20.92;;;10.18;;
60068;SDS011;45945;53.350;55.922;2023-02-19T00:05:41;23.40;;;10.23;;
60068;SDS011;45945;53.350;55.922;2023-02-19T00:06:43;30.30;;;11.00;;
60068;SDS011;45945;53.350;55.922;2023-02-19T00:07:45;23.08;;;10.10;;
60068;SDS011;45945;53.350;55.922;2023-02-19T00:08:46;23.23;;;10.10;;
60068;SDS011;45945;53.350;55.922;2023-02-19T00:09:47;25.73;;;10.55;;
60068;SDS011;45945;53.350;55.922;2023-02-19T00:10:47;29.17;;;11.18;;
60068;SDS011;45945;53.350;55.922;2023-02-19T00:11:50;25.23;;;11.50;;
60068;SDS011;45945;53.350;55.922;2023-02-19T00:12:51;25.60;;;10.98;;
60068;SDS011;45945;53.350;55.922;2023-02-19T00:13:53;27.63;;;10.98;;
60068;SDS011;45945;53.350;55.922;2023-02-19T00:14:54;27.10;;;12.48;;
60068;SDS011;45945;53.350;55.922;2023-02-19T00:15:56;25.50;;;10.52;;
60068;SDS011;45945;53.350;55.922;2023-02-19T00:16:57;28.73;;;12.80;;
60068;SDS011;45945;53.350;55.922;2023-02-19T00:17:58;31.67;;;12.07;;
60068;SDS011;45945;53.350;55.922;2023-02-19T00:18:59;25.58;;;10.88;;
60068;SDS011;45945;53.350;55.922;2023-02-19T00:20:00;23.70;;;10.02;;
60068;SDS011;45945;53.350;55.922;2023-02-19T00:21:01;28.02;;;12.48;;
60068;SDS011;45945;53.350;55.922;2023-02-19T00:22:02;26.10;;;10.48;;
60068;SDS011;45945;53.350;55.922;2023-02-19T00:23:21;24.00;;;11.15;;
60068;SDS011;45945;53.350;55.922;2023-02-19T00:24:22;29.98;;;11.63;;
60068;SDS011;45945;53.350;55.922;2023-02-19T00:25:23;28.92;;;13.05;;
60068;SDS011;45945;53.350;55.922;2023-02-19T00:26:24;21.85;;;9.43;;
60068;SDS011;45945;53.350;55.922;2023-02-19T00:27:25;21.25;;;10.20;;
60068;SDS011;45945;53.350;55.922;2023-02-19T00:28:26;26.23;;;11.90;;
60068;SDS011;45945;53.350;55.922;2023-02-19T00:29:26;27.77;;;13.00;;
60068;SDS011;45945;53.350;55.922;2023-02-19T00:30:28;27.73;;;13.07;;
60068;SDS011;45945;53.350;55.922;2023-02-19T00:31:29;25.77;;;11.90;;
60068;SDS011;45945;53.350;55.922;2023-02-19T00:32:31;8.35;;;4.10;;
60068;SDS011;45945;53.350;55.922;2023-02-19T00:33:31;17.67;;;6.72;;
60068;SDS011;45945;53.350;55.922;2023-02-19T00:34:33;24.88;;;11.52;;
60068;SDS011;45945;53.350;55.922;2023-02-19T00:35:35;15.93;;;7.15;;
60068;SDS011;45945;53.350;55.922;2023-02-19T00:36:37;24.98;;;10.00;;
60068;SDS011;45945;53.350;55.922;2023-02-19T00:37:37;26.23;;;11.30;;
60068;SDS011;45945;53.350;55.922;2023-02-19T00:38:39;21.88;;;10.30;;
60068;SDS011;45945;53.350;55.922;2023-02-19T00:39:40;28.77;;;13.77;;
60068;SDS011;45945;53.350;55.922;2023-02-19T00:40:42;15.00;;;7.07;;
60068;SDS011;45945;53.350;55.922;2023-02-19T00:41:43;21.70;;;9.00;;
60068;SDS011;45945;53.350;55.922;2023-02-19T00:42:44;24.40;;;11.60;;
60068;SDS011;45945;53.350;55.922;2023-02-19T00:43:51;21.70;;;9.63;;
60068;SDS011;45945;53.350;55.922;2023-02-19T00:44:54;23.65;;;10.32;;
60068;SDS011;45945;53.350;55.922;2023-02-19T00:45:54;21.58;;;10.07;;
60068;SDS011;45945;53.350;55.922;2023-02-19T00:46:56;29.58;;;12.13;;
60068;SDS011;45945;53.350;55.922;2023-02-19T00:47:57;9.98;;;4.30;;
60068;SDS011;45945;53.350;55.922;2023-02-19T00:48:58;9.82;;;4.90;;
60068;SDS011;45945;53.350;55.922;2023-02-19T00:49:59;22.70;;;8.50;;
60068;SDS011;45945;53.350;55.922;2023-02-19T00:51:00;22.38;;;8.82;;
60068;SDS011;45945;53.350;55.922;2023-02-19T00:53:20;6.10;;;3.78;;
60068;SDS011;45945;53.350;55.922;2023-02-19T00:54:21;15.05;;;4.85;;
60068;SDS011;45945;53.350;55.922;2023-02-19T00:55:22;19.38;;;8.25;;
60068;SDS011;45945;53.350;55.922;2023-02-19T00:56:23;17.58;;;7.55;;
60068;SDS011;45945;53.350;55.922;2023-02-19T00:57:42;21.73;;;9.15;;
60068;SDS011;45945;53.350;55.922;2023-02-19T00:58:43;20.60;;;7.20;;
60068;SDS011;45945;53.350;55.922;2023-02-19T00:59:44;7.30;;;3.55;;
60068;SDS011;45945;53.350;55.922;2023-02-19T01:00:44;21.38;;;8.30;;
60068;SDS011;45945;53.350;55.922;2023-02-19T01:01:45;15.25;;;5.57;;
60068;SDS011;45945;53.350;55.922;2023-02-19T01:02:47;21.42;;;7.60;;
60068;SDS011;45945;53.350;55.922;2023-02-19T01:03:47;20.58;;;8.63;;
60068;SDS011;45945;53.350;55.922;2023-02-19T01:04:48;13.75;;;6.47;;
60068;SDS011;45945;53.350;55.922;2023-02-19T01:05:49;22.48;;;8.73;;
60068;SDS011;45945;53.350;55.922;2023-02-19T01:06:50;22.00;;;9.70;;
60068;SDS011;45945;53.350;55.922;2023-02-19T01:07:51;10.43;;;4.90;;
60068;SDS011;45945;53.350;55.922;2023-02-19T01:08:52;19.55;;;9.00;;
60068;SDS011;45945;53.350;55.922;2023-02-19T01:09:53;22.00;;;8.18;;
60068;SDS011;45945;53.350;55.922;2023-02-19T01:10:54;13.52;;;5.07;;
60068;SDS011;45945;53.350;55.922;2023-02-19T01:11:56;8.73;;;4.72;;
60068;SDS011;45945;53.350;55.922;2023-02-19T01:12:57;14.65;;;6.68;;
60068;SDS011;45945;53.350;55.922;2023-02-19T01:14:16;20.25;;;7.00;;
60068;SDS011;45945;53.350;55.922;2023-02-19T01:15:17;21.02;;;8.55;;
60068;SDS011;45945;53.350;55.922;2023-02-19T01:16:19;13.18;;;6.28;;
60068;SDS011;45945;53.350;55.922;2023-02-19T01:17:20;18.70;;;8.15;;
60068;SDS011;45945;53.350;55.922;2023-02-19T01:18:21;19.30;;;7.32;;
60068;SDS011;45945;53.350;55.922;2023-02-19T01:19:22;7.70;;;2.70;;
60068;SDS011;45945;53.350;55.922;2023-02-19T01:20:23;18.73;;;8.15;;
60068;SDS011;45945;53.350;55.922;2023-02-19T01:21:26;22.25;;;9.23;;
60068;SDS011;45945;53.350;55.922;2023-02-19T01:22:27;11.75;;;6.45;;
60068;SDS011;45945;53.350;55.922;2023-02-19T01:23:29;21.17;;;9.38;;
60068;SDS011;45945;53.350;55.922;2023-02-19T01:24:29;16.13;;;6.78;;
60068;SDS011;45945;53.350;55.922;2023-02-19T01:25:30;3.70;;;2.00;;
60068;SDS011;45945;53.350;55.922;2023-02-19T01:26:31;21.75;;;8.38;;
60068;SDS011;45945;53.350;55.922;2023-02-19T01:27:32;12.38;;;5.18;;
60068;SDS011;45945;53.350;55.922;2023-02-19T01:28:33;19.75;;;7.82;;
60068;SDS011;45945;53.350;55.922;2023-02-19T01:29:34;16.83;;;6.80;;
60068;SDS011;45945;53.350;55.922;2023-02-19T01:30:35;23.83;;;10.07;;
60068;SDS011;45945;53.350;55.922;2023-02-19T01:31:37;10.70;;;4.07;;
60068;SDS011;45945;53.350;55.922;2023-02-19T01:32:38;14.35;;;6.00;;
60068;SDS011;45945;53.350;55.922;2023-02-19T01:33:39;15.40;;;6.20;;
60068;SDS011;45945;53.350;55.922;2023-02-19T01:34:43;21.23;;;9.27;;
60068;SDS011;45945;53.350;55.922;2023-02-19T01:35:44;8.35;;;4.10;;
60068;SDS011;45945;53.350;55.922;2023-02-19T01:36:44;17.42;;;6.53;;
60068;SDS011;45945;53.350;55.922;2023-02-19T01:37:45;18.60;;;8.52;;
60068;SDS011;45945;53.350;55.922;2023-02-19T01:38:46;19.80;;;8.45;;
60068;SDS011;45945;53.350;55.922;2023-02-19T01:39:47;14.18;;;7.20;;
60068;SDS011;45945;53.350;55.922;2023-02-19T01:40:55;14.93;;;6.72;;
60068;SDS011;45945;53.350;55.922;2023-02-19T01:41:56;9.95;;;4.22;;
60068;SDS011;45945;53.350;55.922;2023-02-19T01:42:58;18.88;;;7.07;;
60068;SDS011;45945;53.350;55.922;2023-02-19T01:44:06;21.48;;;8.77;;
60068;SDS011;45945;53.350;55.922;2023-02-19T01:45:29;20.95;;;8.60;;
60068;SDS011;45945;53.350;55.922;2023-02-19T01:46:32;18.20;;;7.22;;
60068;SDS011;45945;53.350;55.922;2023-02-19T01:47:33;17.00;;;7.15;;
60068;SDS011;45945;53.350;55.922;2023-02-19T01:48:35;8.55;;;3.20;;
60068;SDS011;45945;53.350;55.922;2023-02-19T01:49:38;13.38;;;6.65;;
60068;SDS011;45945;53.350;55.922;2023-02-19T01:50:43;15.60;;;6.97;;
60068;SDS011;45945;53.350;55.922;2023-02-19T01:51:46;19.50;;;7.95;;
60068;SDS011;45945;53.350;55.922;2023-02-19T01:52:48;15.95;;;7.47;;
60068;SDS011;45945;53.350;55.922;2023-02-19T01:53:51;13.60;;;6.25;;
60068;SDS011;45945;53.350;55.922;2023-02-19T01:54:53;7.28;;;4.20;;
60068;SDS011;45945;53.350;55.922;2023-02-19T01:55:55;15.02;;;5.78;;
60068;SDS011;45945;53.350;55.922;2023-02-19T01:56:57;8.25;;;3.83;;
60068;SDS011;45945;53.350;55.922;2023-02-19T01:57:58;11.15;;;4.47;;
60068;SDS011;45945;53.350;55.922;2023-02-19T01:59:00;12.88;;;5.88;;
60068;SDS011;45945;53.350;55.922;2023-02-19T02:00:05;18.70;;;6.32;;
60068;SDS011;45945;53.350;55.922;2023-02-19T02:01:13;15.73;;;7.15;;
60068;SDS011;45945;53.350;55.922;2023-02-19T02:02:15;19.15;;;7.22;;
60068;SDS011;45945;53.350;55.922;2023-02-19T02:03:21;15.25;;;6.70;;
60068;SDS011;45945;53.350;55.922;2023-02-19T02:04:22;17.88;;;5.40;;
60068;SDS011;45945;53.350;55.922;2023-02-19T02:05:45;12.52;;;5.47;;
60068;SDS011;45945;53.350;55.922;2023-02-19T02:07:45;13.88;;;5.18;;
60068;SDS011;45945;53.350;55.922;2023-02-19T02:09:04;13.77;;;5.05;;
60068;SDS011;45945;53.350;55.922;2023-02-19T02:10:23;10.90;;;3.70;;
60068;SDS011;45945;53.350;55.922;2023-02-19T02:11:24;18.00;;;8.63;;
60068;SDS011;45945;53.350;55.922;2023-02-19T02:12:25;18.83;;;7.90;;
60068;SDS011;45945;53.350;55.922;2023-02-19T02:13:44;11.18;;;4.45;;
60068;SDS011;45945;53.350;55.922;2023-02-19T02:14:45;11.98;;;4.22;;
60068;SDS011;45945;53.350;55.922;2023-02-19T02:15:53;22.33;;;7.57;;
60068;SDS011;45945;53.350;55.922;2023-02-19T02:18:30;8.45;;;4.07;;
60068;SDS011;45945;53.350;55.922;2023-02-19T02:19:41;13.35;;;6.05;;
60068;SDS011;45945;53.350;55.922;2023-02-19T02:23:39;16.10;;;5.82;;
60068;SDS011;45945;53.350;55.922;2023-02-19T02:24:49;11.57;;;5.13;;
60068;SDS011;45945;53.350;55.922;2023-02-19T02:31:14;7.85;;;3.78;;
60068;SDS011;45945;53.350;55.922;2023-02-19T02:32:17;20.77;;;8.02;;
60068;SDS011;45945;53.350;55.922;2023-02-19T02:33:27;12.18;;;4.70;;
60068;SDS011;45945;53.350;55.922;2023-02-19T02:34:40;10.60;;;4.82;;
60068;SDS011;45945;53.350;55.922;2023-02-19T02:35:50;21.58;;;7.30;;
60068;SDS011;45945;53.350;55.922;2023-02-19T02:36:53;21.33;;;9.68;;
60068;SDS011;45945;53.350;55.922;2023-02-19T02:37:56;25.42;;;9.68;;
60068;SDS011;45945;53.350;55.922;2023-02-19T02:38:59;18.40;;;7.18;;
60068;SDS011;45945;53.350;55.922;2023-02-19T02:40:03;10.80;;;4.82;;
60068;SDS011;45945;53.350;55.922;2023-02-19T02:41:05;19.10;;;6.88;;
60068;SDS011;45945;53.350;55.922;2023-02-19T02:42:06;9.18;;;3.30;;
60068;SDS011;45945;53.350;55.922;2023-02-19T02:43:34;16.17;;;7.50;;
60068;SDS011;45945;53.350;55.922;2023-02-19T02:44:35;16.10;;;7.68;;
60068;SDS011;45945;53.350;55.922;2023-02-19T02:45:36;22.77;;;9.68;;
60068;SDS011;45945;53.350;55.922;2023-02-19T02:46:53;12.20;;;6.10;;
60068;SDS011;45945;53.350;55.922;2023-02-19T02:47:54;17.25;;;6.78;;
60068;SDS011;45945;53.350;55.922;2023-02-19T02:48:57;25.50;;;10.13;;
60068;SDS011;45945;53.350;55.922;2023-02-19T02:49:59;19.80;;;8.77;;
60068;SDS011;45945;53.350;55.922;2023-02-19T02:52:41;16.33;;;6.88;;
60068;SDS011;45945;53.350;55.922;2023-02-19T02:55:57;24.23;;;10.48;;
60068;SDS011;45945;53.350;55.922;2023-02-19T02:56:59;13.93;;;6.45;;
60068;SDS011;45945;53.350;55.922;2023-02-19T02:58:04;18.73;;;8.85;;
60068;SDS011;45945;53.350;55.922;2023-02-19T02:59:05;16.83;;;7.63;;
60068;SDS011;45945;53.350;55.922;2023-02-19T03:00:08;16.90;;;5.97;;
60068;SDS011;45945;53.350;55.922;2023-02-19T03:01:10;16.52;;;5.95;;
60068;SDS011;45945;53.350;55.922;2023-02-19T03:02:30;20.48;;;8.73;;
60068;SDS011;45945;53.350;55.922;2023-02-19T03:03:32;12.02;;;3.95;;
60068;SDS011;45945;53.350;55.922;2023-02-19T03:06:04;10.13;;;4.22;;
60068;SDS011;45945;53.350;55.922;2023-02-19T03:07:06;11.70;;;3.92;;
60068;SDS011;45945;53.350;55.922;2023-02-19T03:08:14;16.98;;;7.38;;
60068;SDS011;45945;53.350;55.922;2023-02-19T03:09:36;9.32;;;3.58;;
60068;SDS011;45945;53.350;55.922;2023-02-19T03:10:45;14.70;;;5.88;;
60068;SDS011;45945;53.350;55.922;2023-02-19T03:11:48;21.30;;;7.55;;
60068;SDS011;45945;53.350;55.922;2023-02-19T03:13:11;6.65;;;3.35;;
60068;SDS011;45945;53.350;55.922;2023-02-19T03:14:45;16.58;;;4.68;;
60068;SDS011;45945;53.350;55.922;2023-02-19T03:16:16;9.13;;;4.63;;
60068;SDS011;45945;53.350;55.922;2023-02-19T03:17:37;5.47;;;2.67;;
60068;SDS011;45945;53.350;55.922;2023-02-19T03:18:59;15.38;;;5.13;;
60068;SDS011;45945;53.350;55.922;2023-02-19T03:20:56;11.55;;;3.55;;
60068;SDS011;45945;53.350;55.922;2023-02-19T03:22:01;13.80;;;4.95;;
60068;SDS011;45945;53.350;55.922;2023-02-19T03:23:10;13.55;;;5.50;;
60068;SDS011;45945;53.350;55.922;2023-02-19T03:24:12;9.55;;;3.63;;
60068;SDS011;45945;53.350;55.922;2023-02-19T03:25:32;12.27;;;4.45;;
60068;SDS011;45945;53.350;55.922;2023-02-19T03:27:01;20.65;;;7.72;;
60068;SDS011;45945;53.350;55.922;2023-02-19T03:28:09;13.55;;;6.13;;
60068;SDS011;45945;53.350;55.922;2023-02-19T03:29:30;16.08;;;7.05;;
60068;SDS011;45945;53.350;55.922;2023-02-19T03:30:37;21.90;;;7.97;;
60068;SDS011;45945;53.350;55.922;2023-02-19T03:31:39;18.63;;;6.88;;
60068;SDS011;45945;53.350;55.922;2023-02-19T03:32:44;8.88;;;4.13;;
60068;SDS011;45945;53.350;55.922;2023-02-19T03:33:46;7.75;;;3.78;;
60068;SDS011;45945;53.350;55.922;2023-02-19T03:34:56;15.15;;;5.68;;
60068;SDS011;45945;53.350;55.922;2023-02-19T03:35:59;11.40;;;4.78;;
60068;SDS011;45945;53.350;55.922;2023-02-19T03:37:07;16.70;;;6.63;;
60068;SDS011;45945;53.350;55.922;2023-02-19T03:38:17;18.13;;;7.22;;
60068;SDS011;45945;53.350;55.922;2023-02-19T03:39:22;12.88;;;5.93;;
60068;SDS011;45945;53.350;55.922;2023-02-19T03:40:24;14.07;;;5.63;;
60068;SDS011;45945;53.350;55.922;2023-02-19T03:46:40;11.55;;;5.50;;
60068;SDS011;45945;53.350;55.922;2023-02-19T03:47:56;12.68;;;5.57;;
60068;SDS011;45945;53.350;55.922;2023-02-19T03:49:14;7.78;;;3.03;;
60068;SDS011;45945;53.350;55.922;2023-02-19T03:50:23;8.02;;;4.38;;
60068;SDS011;45945;53.350;55.922;2023-02-19T03:52:32;20.50;;;8.25;;
60068;SDS011;45945;53.350;55.922;2023-02-19T03:53:46;18.17;;;6.38;;
60068;SDS011;45945;53.350;55.922;2023-02-19T03:55:05;15.05;;;6.28;;
60068;SDS011;45945;53.350;55.922;2023-02-19T03:56:15;11.20;;;5.15;;
60068;SDS011;45945;53.350;55.922;2023-02-19T04:00:03;14.30;;;6.18;;
60068;SDS011;45945;53.350;55.922;2023-02-19T04:00:57;19.55;;;7.70;;
60068;SDS011;45945;53.350;55.922;2023-02-19T04:02:18;13.52;;;4.78;;
60068;SDS011;45945;53.350;55.922;2023-02-19T04:03:26;9.90;;;4.40;;
60068;SDS011;45945;53.350;55.922;2023-02-19T04:04:31;16.50;;;5.28;;
60068;SDS011;45945;53.350;55.922;2023-02-19T04:05:34;16.25;;;5.50;;
60068;SDS011;45945;53.350;55.922;2023-02-19T04:06:36;14.23;;;5.35;;
60068;SDS011;45945;53.350;55.922;2023-02-19T04:07:40;10.82;;;5.15;;
60068;SDS011;45945;53.350;55.922;2023-02-19T04:08:44;12.18;;;4.85;;
60068;SDS011;45945;53.350;55.922;2023-02-19T04:09:47;18.02;;;7.15;;
60068;SDS011;45945;53.350;55.922;2023-02-19T04:10:52;11.63;;;5.13;;
60068;SDS011;45945;53.350;55.922;2023-02-19T04:11:54;9.40;;;5.50;;
60068;SDS011;45945;53.350;55.922;2023-02-19T04:12:59;12.93;;;5.18;;
60068;SDS011;45945;53.350;55.922;2023-02-19T04:15:10;18.75;;;7.45;;
60068;SDS011;45945;53.350;55.922;2023-02-19T04:16:14;16.35;;;7.60;;
60068;SDS011;45945;53.350;55.922;2023-02-19T04:17:25;8.32;;;3.17;;
60068;SDS011;45945;53.350;55.922;2023-02-19T04:18:28;8.40;;;4.75;;
60068;SDS011;45945;53.350;55.922;2023-02-19T04:19:32;19.50;;;8.10;;
60068;SDS011;45945;53.350;55.922;2023-02-19T04:20:35;13.18;;;3.85;;
60068;SDS011;45945;53.350;55.922;2023-02-19T04:21:38;11.18;;;5.07;;
60068;SDS011;45945;53.350;55.922;2023-02-19T04:22:40;5.88;;;3.05;;
60068;SDS011;45945;53.350;55.922;2023-02-19T04:23:41;18.75;;;6.95;;
60068;SDS011;45945;53.350;55.922;2023-02-19T04:24:45;18.60;;;8.30;;
60068;SDS011;45945;53.350;55.922;2023-02-19T04:25:47;4.90;;;1.80;;
60068;SDS011;45945;53.350;55.922;2023-02-19T04:26:49;17.42;;;5.82;;
60068;SDS011;45945;53.350;55.922;2023-02-19T04:27:50;13.25;;;5.32;;
60068;SDS011;45945;53.350;55.922;2023-02-19T04:29:10;17.08;;;7.70;;
60068;SDS011;45945;53.350;55.922;2023-02-19T04:30:11;15.02;;;6.20;;
60068;SDS011;45945;53.350;55.922;2023-02-19T04:31:12;20.13;;;8.60;;
60068;SDS011;45945;53.350;55.922;2023-02-19T04:32:13;20.95;;;8.40;;
60068;SDS011;45945;53.350;55.922;2023-02-19T04:33:14;12.43;;;6.03;;
60068;SDS011;45945;53.350;55.922;2023-02-19T04:34:15;16.90;;;6.95;;
60068;SDS011;45945;53.350;55.922;2023-02-19T04:35:15;17.17;;;7.32;;
60068;SDS011;45945;53.350;55.922;2023-02-19T04:36:16;16.23;;;7.15;;
60068;SDS011;45945;53.350;55.922;2023-02-19T04:37:17;17.42;;;7.57;;
60068;SDS011;45945;53.350;55.922;2023-02-19T04:38:21;14.73;;;6.90;;
60068;SDS011;45945;53.350;55.922;2023-02-19T04:39:22;15.32;;;6.35;;
60068;SDS011;45945;53.350;55.922;2023-02-19T04:40:23;13.50;;;6.55;;
60068;SDS011;45945;53.350;55.922;2023-02-19T04:41:23;17.27;;;8.07;;
60068;SDS011;45945;53.350;55.922;2023-02-19T04:42:24;17.27;;;7.45;;
60068;SDS011;45945;53.350;55.922;2023-02-19T04:43:25;14.25;;;6.97;;
60068;SDS011;45945;53.350;55.922;2023-02-19T04:44:26;14.43;;;6.25;;
60068;SDS011;45945;53.350;55.922;2023-02-19T04:45:27;35.78;;;17.25;;
60068;SDS011;45945;53.350;55.922;2023-02-19T04:46:28;17.98;;;8.07;;
60068;SDS011;45945;53.350;55.922;2023-02-19T04:47:30;15.20;;;6.75;;
60068;SDS011;45945;53.350;55.922;2023-02-19T04:48:31;20.48;;;8.40;;
60068;SDS011;45945;53.350;55.922;2023-02-19T04:49:32;18.88;;;8.00;;
60068;SDS011;45945;53.350;55.922;2023-02-19T04:50:33;21.17;;;8.13;;
60068;SDS011;45945;53.350;55.922;2023-02-19T04:51:33;13.43;;;5.50;;
60068;SDS011;45945;53.350;55.922;2023-02-19T04:52:35;16.02;;;7.10;;
60068;SDS011;45945;53.350;55.922;2023-02-19T04:53:36;16.02;;;7.95;;
60068;SDS011;45945;53.350;55.922;2023-02-19T04:54:36;19.52;;;7.07;;
60068;SDS011;45945;53.350;55.922;2023-02-19T04:55:38;19.70;;;8.77;;
60068;SDS011;45945;53.350;55.922;2023-02-19T04:57:58;9.48;;;3.40;;
60068;SDS011;45945;53.350;55.922;2023-02-19T04:58:59;14.50;;;6.40;;
60068;SDS011;45945;53.350;55.922;2023-02-19T05:00:00;9.85;;;3.97;;
60068;SDS011;45945;53.350;55.922;2023-02-19T05:01:01;12.60;;;5.05;;
60068;SDS011;45945;53.350;55.922;2023-02-19T05:02:02;12.40;;;5.68;;
60068;SDS011;45945;53.350;55.922;2023-02-19T05:03:03;13.27;;;5.18;;
60068;SDS011;45945;53.350;55.922;2023-02-19T05:04:03;11.68;;;4.35;;
60068;SDS011;45945;53.350;55.922;2023-02-19T05:05:04;9.00;;;4.22;;
60068;SDS011;45945;53.350;55.922;2023-02-19T05:06:06;12.00;;;4.68;;
60068;SDS011;45945;53.350;55.922;2023-02-19T05:07:07;11.77;;;3.95;;
60068;SDS011;45945;53.350;55.922;2023-02-19T05:08:08;13.82;;;5.68;;
60068;SDS011;45945;53.350;55.922;2023-02-19T05:09:09;15.18;;;5.53;;
60068;SDS011;45945;53.350;55.922;2023-02-19T05:10:09;18.10;;;7.45;;
60068;SDS011;45945;53.350;55.922;2023-02-19T05:11:10;15.13;;;6.13;;
60068;SDS011;45945;53.350;55.922;2023-02-19T05:12:11;14.88;;;6.15;;
60068;SDS011;45945;53.350;55.922;2023-02-19T05:13:12;10.13;;;5.13;;
60068;SDS011;45945;53.350;55.922;2023-02-19T05:14:13;14.18;;;6.35;;
60068;SDS011;45945;53.350;55.922;2023-02-19T05:15:14;18.15;;;7.80;;
60068;SDS011;45945;53.350;55.922;2023-02-19T05:16:15;13.23;;;5.10;;
60068;SDS011;45945;53.350;55.922;2023-02-19T05:17:15;16.38;;;7.35;;
60068;SDS011;45945;53.350;55.922;2023-02-19T05:18:16;15.93;;;6.50;;
60068;SDS011;45945;53.350;55.922;2023-02-19T05:19:17;13.95;;;6.63;;
60068;SDS011;45945;53.350;55.922;2023-02-19T05:20:18;12.15;;;5.32;;
60068;SDS011;45945;53.350;55.922;2023-02-19T05:21:19;14.32;;;5.32;;
60068;SDS011;45945;53.350;55.922;2023-02-19T05:22:20;27.35;;;12.27;;
60068;SDS011;45945;53.350;55.922;2023-02-19T05:23:20;12.23;;;4.68;;
60068;SDS011;45945;53.350;55.922;2023-02-19T05:24:21;16.42;;;7.03;;
60068;SDS011;45945;53.350;55.922;2023-02-19T05:25:23;14.23;;;5.45;;
60068;SDS011;45945;53.350;55.922;2023-02-19T05:26:24;13.55;;;5.20;;
60068;SDS011;45945;53.350;55.922;2023-02-19T05:27:26;8.77;;;4.45;;
60068;SDS011;45945;53.350;55.922;2023-02-19T05:28:27;13.35;;;6.03;;
60068;SDS011;45945;53.350;55.922;2023-02-19T05:29:29;13.57;;;5.90;;
60068;SDS011;45945;53.350;55.922;2023-02-19T05:30:30;17.00;;;6.60;;
60068;SDS011;45945;53.350;55.922;2023-02-19T05:31:31;14.18;;;7.45;;
60068;SDS011;45945;53.350;55.922;2023-02-19T05:32:37;21.08;;;8.75;;
60068;SDS011;45945;53.350;55.922;2023-02-19T05:33:38;16.67;;;6.50;;
60068;SDS011;45945;53.350;55.922;2023-02-19T05:34:39;15.52;;;6.43;;
60068;SDS011;45945;53.350;55.922;2023-02-19T05:36:02;17.30;;;7.25;;
60068;SDS011;45945;53.350;55.922;2023-02-19T05:37:03;17.88;;;8.15;;
60068;SDS011;45945;53.350;55.922;2023-02-19T05:38:04;18.48;;;8.73;;
60068;SDS011;45945;53.350;55.922;2023-02-19T05:39:08;13.23;;;6.53;;
60068;SDS011;45945;53.350;55.922;2023-02-19T05:40:10;20.50;;;8.55;;
60068;SDS011;45945;53.350;55.922;2023-02-19T05:41:13;15.98;;;8.23;;
60068;SDS011;45945;53.350;55.922;2023-02-19T05:42:14;18.15;;;6.93;;
60068;SDS011;45945;53.350;55.922;2023-02-19T05:43:15;14.60;;;6.50;;
60068;SDS011;45945;53.350;55.922;2023-02-19T05:44:15;19.15;;;8.82;;
60068;SDS011;45945;53.350;55.922;2023-02-19T05:45:16;14.95;;;6.75;;
60068;SDS011;45945;53.350;55.922;2023-02-19T05:46:19;16.60;;;7.30;;
60068;SDS011;45945;53.350;55.922;2023-02-19T05:47:20;12.90;;;5.00;;
60068;SDS011;45945;53.350;55.922;2023-02-19T05:48:22;13.38;;;5.45;;
60068;SDS011;45945;53.350;55.922;2023-02-19T05:49:23;10.80;;;3.97;;
60068;SDS011;45945;53.350;55.922;2023-02-19T05:50:23;11.27;;;4.85;;
60068;SDS011;45945;53.350;55.922;2023-02-19T05:51:25;10.30;;;4.88;;
60068;SDS011;45945;53.350;55.922;2023-02-19T05:52:26;7.40;;;3.10;;
60068;SDS011;45945;53.350;55.922;2023-02-19T05:53:27;9.80;;;3.67;;
60068;SDS011;45945;53.350;55.922;2023-02-19T05:54:28;11.48;;;4.40;;
60068;SDS011;45945;53.350;55.922;2023-02-19T05:55:29;4.03;;;1.80;;
60068;SDS011;45945;53.350;55.922;2023-02-19T05:56:36;7.53;;;3.15;;
60068;SDS011;45945;53.350;55.922;2023-02-19T05:57:45;13.25;;;4.38;;
60068;SDS011;45945;53.350;55.922;2023-02-19T05:58:46;11.25;;;4.80;;
60068;SDS011;45945;53.350;55.922;2023-02-19T05:59:47;13.48;;;5.43;;
60068;SDS011;45945;53.350;55.922;2023-02-19T06:00:48;6.15;;;3.60;;
60068;SDS011;45945;53.350;55.922;2023-02-19T06:01:49;8.90;;;3.65;;
60068;SDS011;45945;53.350;55.922;2023-02-19T06:02:50;9.77;;;3.22;;
60068;SDS011;45945;53.350;55.922;2023-02-19T06:03:51;5.90;;;2.75;;
60068;SDS011;45945;53.350;55.922;2023-02-19T06:04:52;13.82;;;6.25;;
60068;SDS011;45945;53.350;55.922;2023-02-19T06:05:53;11.93;;;2.88;;
60068;SDS011;45945;53.350;55.922;2023-02-19T06:06:54;7.40;;;2.38;;
60068;SDS011;45945;53.350;55.922;2023-02-19T06:07:55;9.15;;;3.33;;
60068;SDS011;45945;53.350;55.922;2023-02-19T06:08:56;12.93;;;4.25;;
60068;SDS011;45945;53.350;55.922;2023-02-19T06:09:57;11.00;;;3.60;;
60068;SDS011;45945;53.350;55.922;2023-02-19T06:10:58;14.40;;;5.65;;
60068;SDS011;45945;53.350;55.922;2023-02-19T06:11:58;8.82;;;3.00;;
60068;SDS011;45945;53.350;55.922;2023-02-19T06:12:59;9.23;;;2.92;;
60068;SDS011;45945;53.350;55.922;2023-02-19T06:14:00;12.02;;;5.43;;
60068;SDS011;45945;53.350;55.922;2023-02-19T06:15:01;14.73;;;5.75;;
60068;SDS011;45945;53.350;55.922;2023-02-19T06:16:05;11.95;;;5.13;;
60068;SDS011;45945;53.350;55.922;2023-02-19T06:17:06;9.27;;;3.95;;
60068;SDS011;45945;53.350;55.922;2023-02-19T06:18:07;4.07;;;2.25;;
60068;SDS011;45945;53.350;55.922;2023-02-19T06:19:08;6.65;;;3.63;;
60068;SDS011;45945;53.350;55.922;2023-02-19T06:20:08;15.48;;;6.35;;
60068;SDS011;45945;53.350;55.922;2023-02-19T06:21:10;14.50;;;4.63;;
60068;SDS011;45945;53.350;55.922;2023-02-19T06:22:12;13.02;;;6.22;;
60068;SDS011;45945;53.350;55.922;2023-02-19T06:23:13;12.57;;;4.05;;
60068;SDS011;45945;53.350;55.922;2023-02-19T06:24:15;6.25;;;2.97;;
60068;SDS011;45945;53.350;55.922;2023-02-19T06:25:15;22.00;;;10.43;;
60068;SDS011;45945;53.350;55.922;2023-02-19T06:26:20;26.70;;;12.93;;
60068;SDS011;45945;53.350;55.922;2023-02-19T06:27:21;23.85;;;12.45;;
60068;SDS011;45945;53.350;55.922;2023-02-19T06:28:22;31.40;;;15.23;;
60068;SDS011;45945;53.350;55.922;2023-02-19T06:29:23;28.50;;;13.02;;
60068;SDS011;45945;53.350;55.922;2023-02-19T06:30:24;24.58;;;13.60;;
60068;SDS011;45945;53.350;55.922;2023-02-19T06:31:25;33.50;;;15.63;;
60068;SDS011;45945;53.350;55.922;2023-02-19T06:32:26;31.88;;;15.63;;
60068;SDS011;45945;53.350;55.922;2023-02-19T06:33:26;32.33;;;15.30;;
60068;SDS011;45945;53.350;55.922;2023-02-19T06:34:27;32.08;;;16.00;;
60068;SDS011;45945;53.350;55.922;2023-02-19T06:35:28;30.42;;;16.92;;
60068;SDS011;45945;53.350;55.922;2023-02-19T06:36:29;30.55;;;16.55;;
60068;SDS011;45945;53.350;55.922;2023-02-19T06:37:30;32.35;;;13.65;;
60068;SDS011;45945;53.350;55.922;2023-02-19T06:38:31;33.15;;;16.13;;
60068;SDS011;45945;53.350;55.922;2023-02-19T06:39:32;32.20;;;15.57;;
60068;SDS011;45945;53.350;55.922;2023-02-19T06:40:33;32.50;;;15.95;;
60068;SDS011;45945;53.350;55.922;2023-02-19T06:41:34;32.67;;;15.68;;